Virac, Philippines
Current Conditions -  °F | °C
As of 2:00 AM on Monday 24 Nov 2014 (Local Time) from RPLL Reporting Station
Few Clouds Few Clouds  
Wind Chill: 81°   Ceiling: Unl
Heat Index: 86°   Visibility: 6mi
Dew Point: 75°   Wind: 6mph
Humidity: 84%   Direction: 110°ESE
Pressure: 29.83"   Gusts: NA
Location:  13.58°N, 124.23°E
Report Text: RPLL 231800Z 11005KT 070V160 9999 FEW025 27/24 Q1010 NOSIG RMK A2983
Loading
Personal Weather Stations






























Interactive Weather Map New forecast layout! Learn more

10-Day Weather Forecast

Advertisements
Track Severe Weather on mobile